Time;durP1;ratioP1;P1;durP2;ratioP2;P2;SDS_P1;SDS_P2;PMS_P1;PMS_P2;Temp;Humidity;BMP_temperature;BMP_pressure;BME280_temperature;BME280_humidity;BME280_pressure;Samples;Min_cycle;Max_cycle;Signal;HPM_P1;HPM_P2
2022/06/15 00:01:46;;;;;;;1.58;1.40;;;13.90;9.70;;;;;;5133930;27;34276;-78
2022/06/15 00:04:11;;;;;;;1.90;1.52;;;13.80;10.30;;;;;;5132114;27;35718;-78
2022/06/15 00:06:56;;;;;;;3.78;1.60;;;13.70;7.30;;;;;;5125862;27;33916;-78
2022/06/15 00:09:38;;;;;;;2.10;1.50;;;13.70;11.10;;;;;;5095833;28;34339;-78
2022/06/15 00:14:52;;;;;;;1.77;1.50;;;13.60;7.60;;;;;;5116347;27;34038;-78
2022/06/15 00:17:18;;;;;;;2.30;1.40;;;13.50;8.30;;;;;;5112863;28;34454;-78
2022/06/15 00:20:04;;;;;;;1.70;1.60;;;13.50;7.70;;;;;;5092805;28;33838;-78
2022/06/15 00:22:30;;;;;;;5.47;1.70;;;13.40;7.70;;;;;;5067552;28;34036;-78
2022/06/15 00:24:56;;;;;;;6.35;1.75;;;13.40;7.90;;;;;;5075005;28;35715;-78
2022/06/15 00:32:50;;;;;;;3.13;1.52;;;13.20;11.00;;;;;;5113580;27;34263;-78
2022/06/15 00:35:17;;;;;;;2.83;1.58;;;13.20;11.40;;;;;;5089613;28;35698;-78
2022/06/15 00:37:43;;;;;;;1.40;1.30;;;13.10;8.30;;;;;;5111318;28;34006;-78
2022/06/15 00:40:52;;;;;;;2.47;1.85;;;13.10;8.40;;;;;;5115246;27;34183;-78
2022/06/15 00:43:36;;;;;;;1.70;1.60;;;13.00;12.10;;;;;;5111312;27;34091;-78
2022/06/15 00:48:50;;;;;;;1.60;1.50;;;12.90;9.80;;;;;;5114462;27;34307;-78
2022/06/15 00:54:40;;;;;;;1.55;1.45;;;12.90;12.90;;;;;;5132804;27;34050;-78
2022/06/15 00:57:11;;;;;;;2.33;1.60;;;12.80;9.00;;;;;;5124141;27;35775;-78
2022/06/15 01:02:59;;;;;;;2.40;1.55;;;12.70;13.10;;;;;;5112806;27;34305;-78
2022/06/15 01:05:59;;;;;;;3.90;1.45;;;12.60;9.10;;;;;;5130254;27;34262;-78
2022/06/15 01:09:15;;;;;;;3.28;1.52;;;12.60;12.60;;;;;;5127984;27;35818;-78
2022/06/15 01:12:24;;;;;;;1.50;1.40;;;12.50;12.70;;;;;;5127948;27;34504;-78
2022/06/15 01:18:44;;;;;;;2.00;1.58;;;12.40;12.40;;;;;;5128322;27;34567;-78
2022/06/15 01:21:52;;;;;;;2.40;1.48;;;12.30;13.10;;;;;;5030423;28;35695;-78
2022/06/15 01:32:46;;;;;;;2.63;1.80;;;12.10;10.00;;;;;;5133495;27;61516;-78
2022/06/15 01:46:35;;;;;;;3.85;1.90;;;11.80;11.40;;;;;;5127400;27;57473;-78
2022/06/15 01:49:02;;;;;;;1.77;1.50;;;11.80;10.40;;;;;;5113054;27;34215;-78
2022/06/15 01:52:24;;;;;;;1.40;1.30;;;11.80;10.50;;;;;;5079965;27;34211;-78
2022/06/15 01:55:11;;;;;;;2.42;1.52;;;11.70;14.10;;;;;;5114950;27;34576;-78
2022/06/15 01:57:43;;;;;;;1.90;1.58;;;11.70;11.90;;;;;;5126748;27;34745;-78
2022/06/15 02:00:41;;;;;;;2.75;1.70;;;11.60;11.10;;;;;;5092592;28;34060;-78
2022/06/15 02:04:00;;;;;;;1.73;1.50;;;11.60;13.60;;;;;;5093685;28;33902;-79
2022/06/15 02:18:55;;;;;;;1.70;1.60;;;11.30;11.30;;;;;;5123370;27;34306;-78
2022/06/15 02:21:55;;;;;;;3.47;1.80;;;11.30;11.10;;;;;;5115120;27;34083;-78
2022/06/15 02:24:23;;;;;;;1.90;1.70;;;11.30;14.60;;;;;;5107012;27;33780;-78
2022/06/15 02:26:50;;;;;;;1.90;1.48;;;11.20;11.20;;;;;;5090952;28;33846;-78
2022/06/15 02:29:34;;;;;;;2.00;1.42;;;11.20;11.30;;;;;;5073712;27;35681;-78
2022/06/15 02:32:48;;;;;;;2.30;1.45;;;11.10;14.10;;;;;;5101274;28;34011;-78
2022/06/15 02:35:45;;;;;;;1.40;1.30;;;11.10;14.80;;;;;;5116695;27;34670;-78
2022/06/15 02:38:39;;;;;;;1.48;1.38;;;11.10;14.80;;;;;;5110207;27;34036;-78
2022/06/15 02:44:16;;;;;;;2.30;1.58;;;11.00;11.50;;;;;;5147171;27;34126;-78
2022/06/15 02:46:46;;;;;;;1.95;1.55;;;10.90;12.00;;;;;;5097645;27;34267;-79
2022/06/15 02:49:58;;;;;;;2.47;1.50;;;10.90;11.90;;;;;;5116275;27;34492;-78
2022/06/15 02:52:54;;;;;;;1.55;1.45;;;10.90;15.10;;;;;;5132525;27;35074;-78
2022/06/15 02:58:39;;;;;;;1.25;1.15;;;10.80;14.90;;;;;;5107773;27;34065;-78
2022/06/15 03:01:05;;;;;;;2.20;1.77;;;10.70;12.20;;;;;;5084490;28;34299;-78
2022/06/15 03:03:33;;;;;;;2.25;1.60;;;10.70;12.10;;;;;;5076060;28;35469;-78
2022/06/15 03:08:52;;;;;;;2.90;1.70;;;10.70;13.40;;;;;;5139608;27;55973;-80
2022/06/15 03:11:52;;;;;;;1.63;1.52;;;10.70;15.00;;;;;;5134121;27;34097;-78
2022/06/15 03:14:18;;;;;;;2.03;1.60;;;10.60;15.00;;;;;;5133461;27;35595;-78
2022/06/15 03:16:47;;;;;;;3.60;1.60;;;10.60;12.20;;;;;;5144131;27;33635;-78
2022/06/15 03:19:29;;;;;;;4.88;1.55;;;10.60;12.30;;;;;;5110956;27;33933;-78
2022/06/15 03:22:51;;;;;;;3.35;1.83;;;10.50;14.70;;;;;;5105060;28;34100;-78
2022/06/15 03:25:31;;;;;;;7.50;1.95;;;10.50;15.10;;;;;;5121671;27;35799;-78
2022/06/15 03:28:25;;;;;;;1.85;1.63;;;10.50;15.20;;;;;;5115269;27;34118;-78
2022/06/15 03:30:52;;;;;;;2.00;1.80;;;10.40;15.20;;;;;;5116609;27;34147;-77
2022/06/15 03:33:18;;;;;;;1.98;1.58;;;10.40;12.60;;;;;;5113082;27;34173;-80
2022/06/15 03:35:45;;;;;;;1.83;1.63;;;10.40;12.60;;;;;;5104959;27;35892;-78
2022/06/15 03:38:12;;;;;;;2.38;1.60;;;10.40;12.60;;;;;;5129445;27;34183;-77
2022/06/15 03:40:46;;;;;;;2.17;1.55;;;10.40;12.70;;;;;;5130158;27;34431;-77
2022/06/15 03:43:38;;;;;;;1.88;1.73;;;10.30;14.00;;;;;;5112526;27;34128;-78
2022/06/15 03:46:23;;;;;;;3.60;2.05;;;10.30;15.70;;;;;;5109039;27;35715;-77
2022/06/15 03:49:07;;;;;;;2.13;1.63;;;10.30;15.70;;;;;;5132904;27;34315;-77
2022/06/15 03:51:34;;;;;;;2.67;1.75;;;10.30;15.70;;;;;;5116513;27;34163;-77
2022/06/15 03:54:00;;;;;;;1.77;1.67;;;10.30;13.20;;;;;;5125151;27;34229;-78
2022/06/15 03:56:49;;;;;;;2.00;1.80;;;10.30;13.20;;;;;;5128345;27;36634;-77
2022/06/15 03:59:15;;;;;;;1.60;1.50;;;10.30;14.90;;;;;;5113762;27;34172;-77
2022/06/15 04:02:00;;;;;;;2.00;1.60;;;10.30;13.10;;;;;;5128686;27;34204;-77
2022/06/15 04:05:12;;;;;;;2.15;1.65;;;10.30;15.80;;;;;;5111611;27;34067;-78
2022/06/15 04:14:32;;;;;;;2.05;1.75;;;10.30;16.60;;;;;;5130990;27;33863;-78
2022/06/15 04:22:40;;;;;;;2.33;2.00;;;10.40;13.40;;;;;;5109789;27;56530;-77
2022/06/15 04:25:06;;;;;;;1.88;1.60;;;10.30;16.90;;;;;;5103680;28;34190;-78
2022/06/15 04:28:02;;;;;;;2.83;1.58;;;10.30;13.50;;;;;;5086890;27;34573;-77
2022/06/15 04:30:28;;;;;;;2.55;1.70;;;10.40;16.90;;;;;;5104268;27;35767;-78
2022/06/15 04:33:38;;;;;;;2.25;1.98;;;10.40;13.80;;;;;;5107673;28;34178;-78
2022/06/15 04:36:05;;;;;;;3.70;1.90;;;10.40;16.50;;;;;;5107641;28;34248;-77
2022/06/15 04:41:33;;;;;;;2.78;1.88;;;10.50;16.80;;;;;;5098884;27;34295;-77
2022/06/15 04:44:25;;;;;;;2.42;1.73;;;10.50;14.00;;;;;;5119173;27;34129;-78
2022/06/15 04:52:48;;;;;;;7.80;1.92;;;10.60;17.10;;;;;;5086975;28;35415;-78
2022/06/15 04:55:44;;;;;;;3.20;2.20;;;10.70;14.20;;;;;;5084999;28;35248;-78
2022/06/15 04:58:10;;;;;;;2.13;1.90;;;10.70;17.20;;;;;;5088391;28;34155;-78
2022/06/15 05:00:52;;;;;;;5.82;2.30;;;10.80;14.30;;;;;;5049278;28;34104;-78
2022/06/15 05:03:19;;;;;;;3.40;2.10;;;10.90;17.00;;;;;;5068262;28;35633;-78
2022/06/15 05:06:01;;;;;;;2.60;2.25;;;10.90;14.30;;;;;;5072085;28;34181;-78
2022/06/15 05:08:26;;;;;;;3.47;2.15;;;11.00;16.70;;;;;;5044552;28;34108;-78
2022/06/15 05:10:52;;;;;;;4.15;2.40;;;11.10;14.50;;;;;;5055916;28;34333;-78
2022/06/15 05:13:18;;;;;;;5.22;2.70;;;11.20;14.50;;;;;;5039204;28;34189;-78
2022/06/15 05:18:34;;;;;;;5.85;2.67;;;11.50;14.40;;;;;;5103432;27;56007;-79
2022/06/15 05:21:01;;;;;;;3.00;2.25;;;12.00;18.20;;;;;;5086361;28;34160;-79
2022/06/15 05:24:07;;;;;;;6.00;2.80;;;12.60;13.90;;;;;;5078369;28;35920;-79
2022/06/15 05:26:54;;;;;;;3.78;2.60;;;13.70;16.00;;;;;;5114514;27;33802;-79
2022/06/15 05:29:20;;;;;;;3.13;2.03;;;15.10;13.60;;;;;;5071445;28;34165;-79
2022/06/15 05:32:17;;;;;;;3.28;1.98;;;16.20;8.70;;;;;;5057687;28;34078;-79
2022/06/15 05:34:43;;;;;;;4.13;2.13;;;17.40;9.40;;;;;;5118806;27;34448;-79
2022/06/15 05:37:54;;;;;;;4.75;2.15;;;18.40;5.80;;;;;;5074261;28;34163;-80
2022/06/15 05:40:20;;;;;;;2.75;1.70;;;19.50;5.00;;;;;;5037143;28;34855;-80
2022/06/15 05:45:12;;;;;;;2.30;1.58;;;21.20;2.70;;;;;;5107191;27;61447;-80
2022/06/15 05:47:58;;;;;;;4.38;1.80;;;21.80;1.80;;;;;;5097910;28;34052;-80
2022/06/15 05:50:24;;;;;;;9.07;1.67;;;22.50;1.00;;;;;;5095170;27;34239;-80
2022/06/15 05:52:50;;;;;;;1.67;1.50;;;22.90;1.00;;;;;;5098156;28;34523;-80
2022/06/15 05:55:16;;;;;;;2.38;1.95;;;23.40;1.00;;;;;;5073903;28;35568;-81
2022/06/15 05:57:58;;;;;;;2.13;1.63;;;23.80;1.00;;;;;;5089995;28;34376;-81
2022/06/15 06:01:09;;;;;;;4.72;1.95;;;24.40;1.00;;;;;;5090884;28;34311;-80
2022/06/15 06:03:57;;;;;;;3.33;1.65;;;24.70;1.00;;;;;;5092711;28;34132;-81
2022/06/15 06:06:24;;;;;;;2.78;1.73;;;24.90;1.00;;;;;;5076085;28;35953;-81
2022/06/15 06:09:05;;;;;;;2.20;1.70;;;24.80;1.00;;;;;;5097034;27;34129;-83
2022/06/15 06:11:55;;;;;;;5.55;1.65;;;25.10;1.00;;;;;;5094645;28;34396;-81
2022/06/15 06:15:05;;;;;;;2.38;1.52;;;25.30;1.00;;;;;;5086935;28;34386;-81
2022/06/15 06:17:53;;;;;;;2.70;2.03;;;25.60;1.00;;;;;;5093446;28;34519;-82
2022/06/15 06:20:19;;;;;;;3.42;1.77;;;25.80;1.00;;;;;;5095170;27;33938;-81
2022/06/15 06:22:45;;;;;;;5.28;2.00;;;25.90;1.00;;;;;;5112832;28;34102;-81
2022/06/15 06:25:11;;;;;;;2.30;1.77;;;26.00;1.00;;;;;;5066511;28;34372;-82
2022/06/15 06:27:37;;;;;;;4.85;1.70;;;26.00;1.00;;;;;;5074893;28;35720;-82
2022/06/15 06:30:04;;;;;;;1.70;1.40;;;26.30;1.00;;;;;;5099303;28;34333;-82
2022/06/15 06:32:39;;;;;;;4.38;1.63;;;26.40;1.00;;;;;;5094262;28;34358;-81
2022/06/15 06:35:24;;;;;;;1.80;1.70;;;26.60;1.00;;;;;;5093727;28;34169;-81
2022/06/15 06:37:50;;;;;;;2.13;1.48;;;26.70;1.00;;;;;;5090917;28;36256;-81
2022/06/15 06:40:16;;;;;;;5.93;1.75;;;26.50;1.00;;;;;;5061238;28;34286;-81
2022/06/15 06:42:51;;;;;;;3.13;1.70;;;26.60;1.00;;;;;;5102266;27;33701;-82
2022/06/15 06:45:17;;;;;;;2.10;1.40;;;26.80;1.00;;;;;;5079133;28;34498;-82
2022/06/15 06:47:44;;;;;;;2.35;1.55;;;26.70;1.00;;;;;;5110830;27;35097;-80
2022/06/15 06:50:44;;;;;;;3.65;1.73;;;26.80;1.00;;;;;;5091971;27;34697;-82
2022/06/15 06:53:55;;;;;;;3.00;1.80;;;26.90;1.00;;;;;;5124990;27;33913;-83
2022/06/15 06:56:21;;;;;;;4.07;1.85;;;26.90;1.00;;;;;;5123537;27;34483;-82
2022/06/15 06:58:47;;;;;;;7.55;1.70;;;26.90;1.00;;;;;;5078764;28;35774;-79
2022/06/15 07:01:13;;;;;;;5.07;1.60;;;27.00;1.00;;;;;;5060692;28;34400;-82
2022/06/15 07:03:39;;;;;;;2.10;1.55;;;27.00;1.00;;;;;;5086878;27;35837;-82
2022/06/15 07:06:07;;;;;;;3.30;1.60;;;27.00;1.00;;;;;;5096889;27;34360;-79
2022/06/15 07:08:37;;;;;;;3.55;1.60;;;27.00;1.00;;;;;;5082076;28;37406;-81
2022/06/15 07:11:09;;;;;;;3.75;1.70;;;26.90;1.00;;;;;;5072977;28;34291;-82
2022/06/15 07:13:35;;;;;;;6.38;1.70;;;26.90;1.00;;;;;;5089218;28;33694;-82
2022/06/15 07:16:22;;;;;;;3.85;2.10;;;26.80;1.00;;;;;;5090551;28;34442;-83
2022/06/15 07:19:07;;;;;;;7.95;1.75;;;27.10;1.00;;;;;;5086706;28;35345;-83
2022/06/15 07:21:58;;;;;;;6.30;1.77;;;27.40;1.00;;;;;;5094088;28;34382;-85
2022/06/15 07:24:46;;;;;;;2.95;1.63;;;27.60;1.00;;;;;;5088346;28;34510;-81
2022/06/15 07:27:13;;;;;;;4.75;1.55;;;27.90;1.00;;;;;;5065784;28;34537;-82
2022/06/15 07:29:39;;;;;;;1.63;1.20;;;28.20;1.00;;;;;;5104232;27;35926;-83
2022/06/15 07:32:05;;;;;;;1.92;1.65;;;28.50;1.00;;;;;;5091827;28;34110;-82
2022/06/15 07:34:43;;;;;;;1.95;1.42;;;28.70;1.00;;;;;;5085063;27;34597;-82
2022/06/15 07:37:10;;;;;;;1.50;1.38;;;29.10;1.00;;;;;;5084387;27;34390;-82
2022/06/15 07:39:54;;;;;;;1.67;1.17;;;29.20;1.00;;;;;;5085018;27;35826;-82
2022/06/15 07:42:45;;;;;;;2.80;1.25;;;29.30;1.00;;;;;;5078184;28;34103;-83
2022/06/15 07:45:12;;;;;;;1.77;1.20;;;29.20;1.00;;;;;;5084514;28;34357;-82
2022/06/15 07:50:20;;;;;;;2.55;1.30;;;29.40;1.00;;;;;;5102380;27;34342;-80
2022/06/15 07:52:50;;;;;;;1.50;1.30;;;29.50;1.00;;;;;;5079909;28;34414;-83
2022/06/15 07:55:23;;;;;;;1.35;1.20;;;29.90;1.00;;;;;;5095626;28;34222;-83
2022/06/15 07:58:30;;;;;;;1.10;1.00;;;30.30;1.00;;;;;;5102662;27;34454;-82
2022/06/15 08:00:56;;;;;;;3.83;1.33;;;30.70;1.00;;;;;;5101739;27;35650;-82
2022/06/15 08:03:48;;;;;;;3.58;1.30;;;30.50;1.00;;;;;;5089621;28;34339;-83
2022/06/15 08:06:14;;;;;;;1.60;1.30;;;30.80;1.00;;;;;;5072600;27;34239;-83
2022/06/15 08:08:59;;;;;;;1.67;1.20;;;30.80;1.00;;;;;;5080030;27;34331;-81
2022/06/15 08:12:11;;;;;;;2.25;1.30;;;31.00;1.00;;;;;;5105500;27;34505;-82
2022/06/15 08:14:33;;;;;;;2.65;1.00;;;30.80;1.00;;;;;;5101301;27;35307;-80
2022/06/15 08:17:00;;;;;;;2.67;1.00;;;30.80;1.00;;;;;;5070971;28;34311;-83
2022/06/15 08:19:50;;;;;;;2.92;1.00;;;30.90;1.00;;;;;;5084277;27;34274;-81
2022/06/15 08:22:17;;;;;;;1.75;1.02;;;31.30;1.00;;;;;;5076970;27;36601;-82
2022/06/15 08:25:03;;;;;;;1.65;1.27;;;31.40;1.00;;;;;;5082743;28;34166;-84
2022/06/15 08:28:16;;;;;;;1.98;1.23;;;31.90;1.00;;;;;;5081091;28;34339;-81
2022/06/15 08:31:03;;;;;;;1.70;1.10;;;32.10;1.00;;;;;;5092179;28;34353;-82
2022/06/15 08:33:57;;;;;;;2.80;1.20;;;31.80;1.00;;;;;;5079479;27;36705;-82
2022/06/15 08:39:34;;;;;;;3.53;1.20;;;31.60;1.00;;;;;;5100396;27;34135;-83
2022/06/15 08:45:04;;;;;;;2.67;1.15;;;31.70;1.00;;;;;;5105199;27;34440;-81
2022/06/15 08:48:01;;;;;;;2.28;1.20;;;32.00;1.00;;;;;;5099068;28;34206;-82
2022/06/15 08:50:42;;;;;;;1.92;1.27;;;32.30;1.00;;;;;;5103912;28;34338;-79
2022/06/15 08:56:25;;;;;;;2.15;0.95;;;32.70;1.00;;;;;;5069793;28;34636;-78
2022/06/15 08:59:30;;;;;;;1.58;1.00;;;32.90;1.00;;;;;;5065789;28;34176;-80
2022/06/15 09:02:12;;;;;;;2.15;1.20;;;33.30;1.00;;;;;;5051961;28;34199;-80
2022/06/15 09:04:57;;;;;;;3.05;1.20;;;33.40;1.00;;;;;;5035745;28;34220;-83
2022/06/15 09:08:07;;;;;;;2.17;1.15;;;33.50;1.00;;;;;;5067154;28;35637;-80
2022/06/15 09:14:10;;;;;;;2.67;1.00;;;33.60;1.00;;;;;;5012175;28;34234;-78
2022/06/15 09:17:01;;;;;;;2.78;1.38;;;33.60;1.00;;;;;;5034129;28;34335;-78
2022/06/15 09:19:48;;;;;;;1.45;1.17;;;33.60;1.00;;;;;;5008861;28;36297;-80
2022/06/15 09:22:52;;;;;;;3.05;1.30;;;33.70;1.00;;;;;;5021465;28;34228;-78
2022/06/15 09:25:26;;;;;;;3.03;1.30;;;33.80;1.00;;;;;;4996964;28;34139;-78
2022/06/15 09:33:17;;;;;;;1.52;1.30;;;33.90;1.00;;;;;;5096288;27;56025;-81
2022/06/15 09:36:26;;;;;;;3.42;1.30;;;33.80;1.00;;;;;;5084493;28;34264;-78
2022/06/15 09:39:04;;;;;;;2.97;1.50;;;33.80;1.00;;;;;;5066469;28;34238;-79
2022/06/15 09:48:03;;;;;;;5.15;1.55;;;33.40;1.00;;;;;;5095212;28;56178;-78
2022/06/15 09:51:19;;;;;;;2.75;1.50;;;33.50;1.00;;;;;;5025059;28;34248;-78
2022/06/15 09:54:31;;;;;;;1.60;1.23;;;33.20;1.00;;;;;;5021026;28;35980;-80
2022/06/15 09:57:43;;;;;;;3.20;1.60;;;33.30;1.00;;;;;;5046198;28;34341;-78
2022/06/15 10:00:15;;;;;;;2.88;1.35;;;33.40;1.00;;;;;;5031043;28;34316;-77
2022/06/15 10:03:24;;;;;;;2.47;1.42;;;33.60;1.00;;;;;;5044598;28;34228;-80
2022/06/15 10:05:54;;;;;;;1.67;1.30;;;33.70;1.00;;;;;;5028459;28;35852;-79
2022/06/15 10:08:22;;;;;;;1.77;1.38;;;33.70;1.00;;;;;;5013437;28;34276;-78
2022/06/15 10:11:11;;;;;;;1.90;1.30;;;33.80;1.00;;;;;;5045092;28;34050;-80
2022/06/15 10:14:15;;;;;;;3.00;1.50;;;33.80;1.00;;;;;;5028161;28;34223;-78
2022/06/15 10:17:22;;;;;;;2.55;1.30;;;33.90;1.00;;;;;;5016020;28;36466;-80
2022/06/15 10:20:05;;;;;;;2.55;1.48;;;34.10;1.00;;;;;;5022755;28;34376;-81
2022/06/15 10:22:53;;;;;;;5.97;1.77;;;34.30;1.00;;;;;;5069820;28;34301;-80
2022/06/15 10:25:36;;;;;;;1.65;1.38;;;34.40;1.00;;;;;;5056381;27;34055;-79
2022/06/15 10:31:32;;;;;;;2.05;1.30;;;34.50;1.00;;;;;;5089454;27;34448;-76
2022/06/15 10:34:21;;;;;;;2.60;1.50;;;34.50;1.00;;;;;;5107041;27;34578;-77
2022/06/15 10:37:15;;;;;;;2.95;1.38;;;34.60;1.00;;;;;;5106053;27;34509;-77
2022/06/15 10:39:48;;;;;;;5.22;1.60;;;34.40;1.00;;;;;;5106859;27;35603;-76
2022/06/15 10:42:23;;;;;;;1.50;1.40;;;34.10;1.00;;;;;;5092427;27;34199;-77
2022/06/15 10:44:54;;;;;;;2.17;1.15;;;33.70;1.00;;;;;;5121341;27;34291;-79
2022/06/15 10:47:48;;;;;;;2.17;1.50;;;33.80;1.00;;;;;;5105054;27;34162;-77
2022/06/15 10:50:22;;;;;;;1.65;1.55;;;33.90;1.00;;;;;;5122205;27;34434;-81
2022/06/15 10:53:22;;;;;;;2.47;1.48;;;34.00;1.00;;;;;;5102214;27;34346;-78
2022/06/15 11:02:40;;;;;;;3.00;1.20;;;34.10;1.00;;;;;;5099200;28;34298;-77
2022/06/15 11:05:17;;;;;;;2.67;1.55;;;33.90;1.00;;;;;;5078716;28;34160;-80
2022/06/15 11:07:53;;;;;;;1.67;1.13;;;34.00;1.00;;;;;;5069029;28;34050;-78
2022/06/15 11:10:42;;;;;;;1.63;1.52;;;34.20;1.00;;;;;;5077734;28;34337;-78
2022/06/15 11:13:31;;;;;;;2.28;1.40;;;34.40;1.00;;;;;;5070200;28;35836;-78
2022/06/15 11:18:45;;;;;;;1.25;1.15;;;34.50;1.00;;;;;;5108910;27;34521;-79
2022/06/15 11:21:22;;;;;;;4.07;1.38;;;34.70;1.00;;;;;;5122443;27;34330;-78
2022/06/15 11:24:34;;;;;;;4.72;1.42;;;34.80;1.00;;;;;;5110311;27;34447;-78
2022/06/15 11:27:28;;;;;;;2.78;1.30;;;34.60;1.00;;;;;;5105764;27;34049;-79
2022/06/15 11:30:05;;;;;;;2.22;1.17;;;34.80;1.00;;;;;;5105763;27;34305;-77
2022/06/15 11:33:22;;;;;;;1.80;1.70;;;34.80;1.00;;;;;;5106030;27;34165;-79
2022/06/15 11:36:12;;;;;;;2.47;1.38;;;34.80;1.00;;;;;;5094373;28;35568;-80
2022/06/15 11:38:52;;;;;;;2.97;1.70;;;34.90;1.00;;;;;;5087186;27;34797;-78
2022/06/15 11:41:28;;;;;;;3.58;1.25;;;35.00;1.00;;;;;;5114869;27;34375;-76
2022/06/15 11:43:56;;;;;;;1.30;1.20;;;35.00;1.00;;;;;;5125403;27;34586;-81
2022/06/15 11:46:44;;;;;;;3.30;1.33;;;34.70;1.00;;;;;;5088040;28;36688;-77
2022/06/15 11:49:30;;;;;;;1.40;1.30;;;34.60;1.00;;;;;;5117139;27;34072;-79
2022/06/15 11:52:31;;;;;;;2.33;1.30;;;34.60;1.00;;;;;;5101897;28;33713;-78
2022/06/15 11:55:27;;;;;;;1.77;1.20;;;34.80;1.00;;;;;;5068792;28;34202;-77
2022/06/15 11:58:24;;;;;;;4.15;1.40;;;34.90;1.00;;;;;;5119944;27;34360;-77
2022/06/15 12:01:47;;;;;;;2.45;1.27;;;35.00;1.00;;;;;;5108486;27;34318;-78
2022/06/15 12:04:38;;;;;;;1.45;1.20;;;34.90;1.00;;;;;;5129228;27;34138;-78
2022/06/15 12:07:17;;;;;;;5.90;1.30;;;34.90;1.00;;;;;;5128665;27;34513;-77
2022/06/15 12:10:03;;;;;;;1.92;1.08;;;34.90;1.00;;;;;;5129027;27;36051;-77
2022/06/15 12:12:48;;;;;;;1.40;1.30;;;35.00;1.00;;;;;;5111496;27;34143;-77
2022/06/15 12:15:46;;;;;;;1.20;1.10;;;34.90;1.00;;;;;;5127992;27;34095;-77
2022/06/15 12:18:23;;;;;;;1.23;1.13;;;34.90;1.00;;;;;;5127388;27;34482;-78
2022/06/15 12:21:14;;;;;;;1.73;1.30;;;35.00;1.00;;;;;;5124654;27;34312;-78
2022/06/15 12:24:04;;;;;;;2.58;1.20;;;35.10;1.00;;;;;;5128888;27;34323;-77
2022/06/15 12:27:02;;;;;;;1.73;1.20;;;35.20;1.00;;;;;;5129349;27;34125;-77
2022/06/15 12:29:50;;;;;;;2.63;1.10;;;35.20;1.00;;;;;;5102401;28;34267;-76
2022/06/15 12:35:38;;;;;;;2.80;1.20;;;35.00;1.00;;;;;;5124866;27;34240;-77
2022/06/15 12:38:16;;;;;;;1.20;1.10;;;34.80;1.00;;;;;;5108298;28;34133;-79
2022/06/15 12:40:46;;;;;;;2.28;1.00;;;34.80;1.00;;;;;;5097161;27;34094;-76
2022/06/15 12:43:40;;;;;;;2.67;1.48;;;34.80;1.00;;;;;;5125651;27;35973;-76
2022/06/15 12:49:26;;;;;;;1.48;1.10;;;34.90;1.00;;;;;;5085662;28;34253;-77
2022/06/15 12:52:17;;;;;;;4.80;1.63;;;34.80;1.00;;;;;;5065880;28;34129;-77
2022/06/15 12:55:36;;;;;;;1.75;1.35;;;34.70;1.00;;;;;;5066809;28;35691;-78
2022/06/15 13:01:48;;;;;;;4.90;2.20;;;34.60;1.00;;;;;;5031698;28;34582;-77
2022/06/15 13:05:03;;;;;;;1.65;1.00;;;34.60;1.00;;;;;;5009883;28;34372;-77
2022/06/15 13:07:33;;;;;;;2.17;1.20;;;34.60;1.00;;;;;;5009280;28;36764;-77
2022/06/15 13:10:27;;;;;;;2.08;1.00;;;34.60;1.00;;;;;;5016509;28;34431;-78
2022/06/15 13:13:25;;;;;;;1.30;1.10;;;34.70;1.00;;;;;;5029633;28;34303;-77
2022/06/15 13:16:41;;;;;;;2.47;1.30;;;35.00;1.00;;;;;;5050502;27;34475;-77
2022/06/15 13:19:26;;;;;;;2.72;1.08;;;35.10;1.00;;;;;;5094519;28;35867;-78
2022/06/15 13:21:54;;;;;;;1.00;1.00;;;35.20;1.00;;;;;;5067864;28;34161;-77
2022/06/15 13:24:48;;;;;;;0.80;0.80;;;35.30;1.00;;;;;;5088707;28;34690;-77
2022/06/15 13:27:47;;;;;;;1.25;0.93;;;35.20;1.00;;;;;;5087027;28;34370;-77
2022/06/15 13:30:54;;;;;;;2.45;1.00;;;35.20;1.00;;;;;;5098514;28;35717;-77
2022/06/15 13:34:10;;;;;;;1.00;0.82;;;35.10;1.00;;;;;;5069740;28;34093;-77
2022/06/15 13:36:37;;;;;;;0.85;0.85;;;35.20;1.00;;;;;;5084198;27;34665;-77
2022/06/15 13:39:27;;;;;;;2.60;1.25;;;35.30;1.00;;;;;;5093349;27;34112;-77
2022/06/15 13:44:49;;;;;;;1.25;0.80;;;35.30;1.00;;;;;;5119134;27;57576;-77
2022/06/15 13:47:51;;;;;;;1.30;1.00;;;35.30;1.00;;;;;;5104447;28;34162;-78
2022/06/15 13:50:26;;;;;;;1.25;1.10;;;35.30;1.00;;;;;;5122136;27;34191;-77
2022/06/15 13:52:54;;;;;;;1.33;1.00;;;35.30;1.00;;;;;;5100307;27;35442;-79
2022/06/15 13:56:12;;;;;;;1.88;1.10;;;35.50;1.00;;;;;;5129124;27;34276;-78
2022/06/15 13:59:22;;;;;;;1.63;1.30;;;35.50;1.00;;;;;;5112862;27;34421;-77
2022/06/15 14:02:24;;;;;;;1.00;0.90;;;35.50;1.00;;;;;;5118132;27;34401;-77
2022/06/15 14:05:05;;;;;;;2.25;1.08;;;35.40;1.00;;;;;;5100207;27;34451;-77
2022/06/15 14:08:02;;;;;;;2.45;1.10;;;35.50;1.00;;;;;;5071924;28;34026;-77
2022/06/15 14:11:14;;;;;;;1.60;1.50;;;35.50;1.00;;;;;;5085351;28;34483;-77
2022/06/15 14:14:25;;;;;;;1.13;0.90;;;35.30;1.00;;;;;;5036415;28;34178;-77
2022/06/15 14:17:41;;;;;;;2.65;1.52;;;35.10;1.00;;;;;;5055223;28;36045;-78
2022/06/15 14:20:49;;;;;;;2.35;1.13;;;35.00;1.00;;;;;;5058076;28;34330;-76
2022/06/15 14:24:04;;;;;;;2.70;0.93;;;35.10;1.00;;;;;;5047986;28;34222;-77
2022/06/15 14:26:42;;;;;;;1.20;1.10;;;35.00;1.00;;;;;;5063463;28;34425;-76
2022/06/15 14:29:24;;;;;;;1.25;1.10;;;35.00;1.00;;;;;;5046145;28;35920;-77
2022/06/15 14:38:07;;;;;;;2.88;1.20;;;34.90;1.00;;;;;;5129889;27;53818;-77
2022/06/15 14:41:18;;;;;;;1.63;1.10;;;34.90;1.00;;;;;;5117201;27;35579;-77
2022/06/15 14:43:46;;;;;;;2.42;0.85;;;34.90;1.00;;;;;;5061700;28;34500;-77
2022/06/15 14:46:19;;;;;;;1.30;1.20;;;34.90;1.00;;;;;;5052444;28;34330;-81
2022/06/15 14:48:49;;;;;;;1.35;1.02;;;35.00;1.00;;;;;;5014884;28;34388;-77
2022/06/15 14:51:33;;;;;;;2.13;1.00;;;35.00;1.00;;;;;;5061158;28;35418;-77
2022/06/15 14:54:06;;;;;;;1.35;1.00;;;35.10;1.00;;;;;;5056057;28;34318;-79
2022/06/15 14:56:54;;;;;;;1.67;1.10;;;35.20;1.00;;;;;;5063170;28;34250;-77
2022/06/15 14:59:40;;;;;;;2.08;1.10;;;35.20;1.00;;;;;;5043263;28;34157;-78
2022/06/15 15:02:21;;;;;;;5.93;1.10;;;35.10;1.00;;;;;;5060335;28;35654;-77
2022/06/15 15:04:53;;;;;;;1.83;1.08;;;34.90;1.00;;;;;;5024373;28;34256;-77
2022/06/15 15:10:24;;;;;;;1.38;0.90;;;34.60;1.00;;;;;;5065324;28;34245;-77
2022/06/15 15:13:25;;;;;;;1.80;1.30;;;34.60;1.00;;;;;;5049839;28;34537;-76
2022/06/15 15:15:55;;;;;;;1.80;1.00;;;34.50;1.00;;;;;;5112337;27;34240;-77
2022/06/15 15:18:26;;;;;;;2.45;1.33;;;34.50;1.00;;;;;;5141213;27;34095;-77
2022/06/15 15:20:56;;;;;;;1.38;1.20;;;34.40;1.00;;;;;;5104123;28;34263;-77
2022/06/15 15:23:41;;;;;;;2.13;1.58;;;34.50;1.00;;;;;;5090124;28;35992;-79
2022/06/15 15:26:58;;;;;;;2.85;1.30;;;34.70;1.00;;;;;;5103708;27;34322;-77
2022/06/15 15:35:59;;;;;;;1.25;1.15;;;34.90;1.00;;;;;;5045469;28;35048;-76
2022/06/15 15:38:27;;;;;;;1.40;1.10;;;35.00;1.00;;;;;;5041642;28;34219;-77
2022/06/15 15:43:38;;;;;;;3.72;1.20;;;35.20;1.00;;;;;;5118176;27;55043;-76
2022/06/15 15:46:04;;;;;;;1.17;1.10;;;35.10;1.00;;;;;;5089283;27;35647;-77
2022/06/15 15:48:30;;;;;;;6.63;1.73;;;35.00;1.00;;;;;;5107571;27;34110;-76
2022/06/15 15:51:12;;;;;;;1.45;1.17;;;34.80;1.00;;;;;;5123205;27;34110;-77
2022/06/15 15:53:59;;;;;;;2.45;1.05;;;34.60;1.00;;;;;;5100783;28;34571;-77
2022/06/15 15:56:46;;;;;;;1.35;1.25;;;34.40;1.00;;;;;;5115752;27;34467;-77
2022/06/15 15:59:34;;;;;;;3.13;1.30;;;34.20;1.00;;;;;;5106263;27;34140;-77
2022/06/15 16:02:23;;;;;;;2.65;1.20;;;34.00;1.00;;;;;;5119413;27;34462;-77
2022/06/15 16:05:12;;;;;;;2.13;1.00;;;33.90;1.00;;;;;;5143893;27;34527;-77
2022/06/15 16:07:38;;;;;;;2.78;1.30;;;33.80;1.00;;;;;;5148353;27;34372;-77
2022/06/15 16:10:51;;;;;;;1.70;1.35;;;33.80;1.00;;;;;;5144628;27;34244;-77
2022/06/15 16:13:32;;;;;;;0.82;0.82;;;33.70;1.00;;;;;;5120970;27;34220;-77
2022/06/15 16:16:07;;;;;;;1.30;1.20;;;33.50;1.00;;;;;;5149023;27;34253;-77
2022/06/15 16:18:34;;;;;;;1.20;1.08;;;33.50;1.00;;;;;;5122318;27;35527;-77
2022/06/15 16:21:28;;;;;;;3.17;1.30;;;33.40;1.00;;;;;;5111215;27;34142;-77
2022/06/15 16:23:56;;;;;;;1.80;1.00;;;33.50;1.00;;;;;;5106012;27;34233;-77
2022/06/15 16:26:37;;;;;;;2.95;1.30;;;33.60;1.00;;;;;;5133171;27;34136;-77
2022/06/15 16:29:04;;;;;;;0.98;0.98;;;33.70;1.00;;;;;;5125559;27;36093;-77
2022/06/15 16:31:37;;;;;;;3.50;1.30;;;33.70;1.00;;;;;;5106156;27;34215;-77
2022/06/15 16:34:05;;;;;;;4.05;1.40;;;33.80;1.00;;;;;;5120663;27;34238;-77
2022/06/15 16:36:32;;;;;;;3.88;1.50;;;33.90;1.00;;;;;;5146000;27;35397;-76
2022/06/15 16:38:58;;;;;;;2.58;1.10;;;33.90;1.00;;;;;;5121924;27;35832;-77
2022/06/15 16:41:48;;;;;;;1.30;1.20;;;33.90;1.00;;;;;;5129305;27;34406;-76
2022/06/15 16:45:03;;;;;;;2.88;1.38;;;33.90;1.00;;;;;;5130731;27;34175;-76
2022/06/15 16:47:29;;;;;;;2.47;1.40;;;33.90;1.00;;;;;;5116954;27;34690;-77
2022/06/15 16:49:55;;;;;;;1.80;1.20;;;33.80;1.00;;;;;;5103511;27;36152;-77
2022/06/15 16:52:22;;;;;;;2.55;1.02;;;33.80;1.00;;;;;;5110592;27;34434;-78
2022/06/15 16:54:48;;;;;;;2.92;1.17;;;33.80;1.00;;;;;;5109103;27;34262;-77
2022/06/15 16:57:14;;;;;;;1.13;1.10;;;33.80;1.00;;;;;;5129056;27;33834;-77